sensor_id;sensor_type;location;lat;lon;timestamp;temperature;humidity
58638;DHT22;54976;51.510;7.522;2023-09-07T00:02:28;18.60;98.80
58638;DHT22;54976;51.510;7.522;2023-09-07T00:05:29;18.50;98.60
58638;DHT22;54976;51.510;7.522;2023-09-07T00:08:29;18.50;98.60
58638;DHT22;54976;51.510;7.522;2023-09-07T00:11:30;18.50;98.70
58638;DHT22;54976;51.510;7.522;2023-09-07T00:14:31;18.50;98.70
58638;DHT22;54976;51.510;7.522;2023-09-07T00:17:31;18.50;98.70
58638;DHT22;54976;51.510;7.522;2023-09-07T00:20:32;18.50;98.80
58638;DHT22;54976;51.510;7.522;2023-09-07T00:23:33;18.40;98.70
58638;DHT22;54976;51.510;7.522;2023-09-07T00:26:34;18.40;98.80
58638;DHT22;54976;51.510;7.522;2023-09-07T00:29:35;18.40;98.80
58638;DHT22;54976;51.510;7.522;2023-09-07T00:32:36;18.50;99.00
58638;DHT22;54976;51.510;7.522;2023-09-07T00:35:36;18.30;99.00
58638;DHT22;54976;51.510;7.522;2023-09-07T00:38:37;18.30;99.00
58638;DHT22;54976;51.510;7.522;2023-09-07T00:41:38;18.30;99.00
58638;DHT22;54976;51.510;7.522;2023-09-07T00:44:38;18.30;99.20
58638;DHT22;54976;51.510;7.522;2023-09-07T00:47:39;18.20;99.50
58638;DHT22;54976;51.510;7.522;2023-09-07T00:50:40;18.10;99.80
58638;DHT22;54976;51.510;7.522;2023-09-07T00:53:41;18.10;99.90
58638;DHT22;54976;51.510;7.522;2023-09-07T00:56:41;18.00;99.70
58638;DHT22;54976;51.510;7.522;2023-09-07T00:59:42;18.00;99.80
58638;DHT22;54976;51.510;7.522;2023-09-07T01:02:42;17.90;99.80
58638;DHT22;54976;51.510;7.522;2023-09-07T01:05:52;17.90;99.90
58638;DHT22;54976;51.510;7.522;2023-09-07T01:08:54;17.80;99.90
58638;DHT22;54976;51.510;7.522;2023-09-07T01:11:56;17.80;99.90
58638;DHT22;54976;51.510;7.522;2023-09-07T01:14:57;17.70;99.90
58638;DHT22;54976;51.510;7.522;2023-09-07T01:17:58;17.70;99.90
58638;DHT22;54976;51.510;7.522;2023-09-07T01:20:59;17.70;99.90
58638;DHT22;54976;51.510;7.522;2023-09-07T01:24:00;17.70;99.90
58638;DHT22;54976;51.510;7.522;2023-09-07T01:27:01;17.60;99.90
58638;DHT22;54976;51.510;7.522;2023-09-07T01:30:03;17.70;99.90
58638;DHT22;54976;51.510;7.522;2023-09-07T01:33:04;17.70;99.90
58638;DHT22;54976;51.510;7.522;2023-09-07T01:36:04;17.60;99.90
58638;DHT22;54976;51.510;7.522;2023-09-07T01:39:05;17.60;99.90
58638;DHT22;54976;51.510;7.522;2023-09-07T01:42:06;17.60;99.90
58638;DHT22;54976;51.510;7.522;2023-09-07T01:45:06;17.60;99.90
58638;DHT22;54976;51.510;7.522;2023-09-07T01:48:11;17.50;99.90
58638;DHT22;54976;51.510;7.522;2023-09-07T01:51:11;17.50;99.90
58638;DHT22;54976;51.510;7.522;2023-09-07T01:54:12;17.40;99.90
58638;DHT22;54976;51.510;7.522;2023-09-07T01:57:12;17.30;99.90
58638;DHT22;54976;51.510;7.522;2023-09-07T02:00:13;17.40;99.90
58638;DHT22;54976;51.510;7.522;2023-09-07T02:03:13;17.30;99.90
58638;DHT22;54976;51.510;7.522;2023-09-07T02:06:14;17.20;99.90
58638;DHT22;54976;51.510;7.522;2023-09-07T02:09:14;17.20;99.90
58638;DHT22;54976;51.510;7.522;2023-09-07T02:12:15;17.20;99.90
58638;DHT22;54976;51.510;7.522;2023-09-07T02:15:15;17.10;99.90
58638;DHT22;54976;51.510;7.522;2023-09-07T02:18:16;17.00;99.90
58638;DHT22;54976;51.510;7.522;2023-09-07T02:21:16;17.00;99.90
58638;DHT22;54976;51.510;7.522;2023-09-07T02:24:17;16.90;99.90
58638;DHT22;54976;51.510;7.522;2023-09-07T02:27:17;16.90;99.90
58638;DHT22;54976;51.510;7.522;2023-09-07T02:30:17;16.90;99.90
58638;DHT22;54976;51.510;7.522;2023-09-07T02:33:18;16.90;99.90
58638;DHT22;54976;51.510;7.522;2023-09-07T02:36:19;16.80;99.90
58638;DHT22;54976;51.510;7.522;2023-09-07T02:39:19;16.80;99.90
58638;DHT22;54976;51.510;7.522;2023-09-07T02:42:20;16.80;99.90
58638;DHT22;54976;51.510;7.522;2023-09-07T02:45:20;16.80;99.90
58638;DHT22;54976;51.510;7.522;2023-09-07T02:48:21;16.80;99.90
58638;DHT22;54976;51.510;7.522;2023-09-07T02:51:21;16.80;99.90
58638;DHT22;54976;51.510;7.522;2023-09-07T02:54:22;16.70;99.90
58638;DHT22;54976;51.510;7.522;2023-09-07T02:57:23;16.80;99.90
58638;DHT22;54976;51.510;7.522;2023-09-07T03:00:23;16.70;99.90
58638;DHT22;54976;51.510;7.522;2023-09-07T03:03:24;16.70;99.90
58638;DHT22;54976;51.510;7.522;2023-09-07T03:06:24;16.70;99.90
58638;DHT22;54976;51.510;7.522;2023-09-07T03:09:25;16.70;99.90
58638;DHT22;54976;51.510;7.522;2023-09-07T03:12:25;16.70;99.90
58638;DHT22;54976;51.510;7.522;2023-09-07T03:15:26;16.70;99.90
58638;DHT22;54976;51.510;7.522;2023-09-07T03:18:27;16.70;99.90
58638;DHT22;54976;51.510;7.522;2023-09-07T03:21:28;16.70;99.90
58638;DHT22;54976;51.510;7.522;2023-09-07T03:24:29;16.60;99.90
58638;DHT22;54976;51.510;7.522;2023-09-07T03:27:30;16.60;99.90
58638;DHT22;54976;51.510;7.522;2023-09-07T03:30:30;16.60;99.90
58638;DHT22;54976;51.510;7.522;2023-09-07T03:33:31;16.60;99.90
58638;DHT22;54976;51.510;7.522;2023-09-07T03:36:31;16.50;99.90
58638;DHT22;54976;51.510;7.522;2023-09-07T03:39:32;16.50;99.90
58638;DHT22;54976;51.510;7.522;2023-09-07T03:42:33;16.40;99.90
58638;DHT22;54976;51.510;7.522;2023-09-07T03:45:33;16.30;99.90
58638;DHT22;54976;51.510;7.522;2023-09-07T03:48:34;16.30;99.90
58638;DHT22;54976;51.510;7.522;2023-09-07T03:51:34;16.30;99.90
58638;DHT22;54976;51.510;7.522;2023-09-07T03:54:35;16.30;99.90
58638;DHT22;54976;51.510;7.522;2023-09-07T03:57:35;16.20;99.90
58638;DHT22;54976;51.510;7.522;2023-09-07T04:00:39;16.20;99.90
58638;DHT22;54976;51.510;7.522;2023-09-07T04:03:40;16.20;99.90
58638;DHT22;54976;51.510;7.522;2023-09-07T04:06:42;16.20;99.90
58638;DHT22;54976;51.510;7.522;2023-09-07T04:09:42;16.10;99.90
58638;DHT22;54976;51.510;7.522;2023-09-07T04:12:43;16.10;99.90
58638;DHT22;54976;51.510;7.522;2023-09-07T04:15:44;16.10;99.90
58638;DHT22;54976;51.510;7.522;2023-09-07T04:18:45;16.10;99.90
58638;DHT22;54976;51.510;7.522;2023-09-07T04:21:46;16.10;99.90
58638;DHT22;54976;51.510;7.522;2023-09-07T04:24:49;16.10;99.90
58638;DHT22;54976;51.510;7.522;2023-09-07T04:27:50;16.00;99.90
58638;DHT22;54976;51.510;7.522;2023-09-07T04:30:50;16.00;99.90
58638;DHT22;54976;51.510;7.522;2023-09-07T04:33:51;16.00;99.90
58638;DHT22;54976;51.510;7.522;2023-09-07T04:36:51;16.00;99.90
58638;DHT22;54976;51.510;7.522;2023-09-07T04:39:52;15.90;99.90
58638;DHT22;54976;51.510;7.522;2023-09-07T04:42:53;15.90;99.90
58638;DHT22;54976;51.510;7.522;2023-09-07T04:45:54;15.90;99.90
58638;DHT22;54976;51.510;7.522;2023-09-07T04:48:54;15.90;99.90
58638;DHT22;54976;51.510;7.522;2023-09-07T04:51:54;15.90;99.90
58638;DHT22;54976;51.510;7.522;2023-09-07T04:54:55;15.90;99.90
58638;DHT22;54976;51.510;7.522;2023-09-07T04:57:55;15.80;99.90
58638;DHT22;54976;51.510;7.522;2023-09-07T05:01:02;15.90;99.90
58638;DHT22;54976;51.510;7.522;2023-09-07T05:04:03;15.80;99.90
58638;DHT22;54976;51.510;7.522;2023-09-07T05:07:04;15.80;99.90
58638;DHT22;54976;51.510;7.522;2023-09-07T05:10:04;15.80;99.90
58638;DHT22;54976;51.510;7.522;2023-09-07T05:13:07;15.80;99.90
58638;DHT22;54976;51.510;7.522;2023-09-07T05:16:07;15.80;99.90
58638;DHT22;54976;51.510;7.522;2023-09-07T05:19:08;15.80;99.90
58638;DHT22;54976;51.510;7.522;2023-09-07T05:22:08;15.70;99.90
58638;DHT22;54976;51.510;7.522;2023-09-07T05:25:09;15.70;99.90
58638;DHT22;54976;51.510;7.522;2023-09-07T05:28:09;15.70;99.90
58638;DHT22;54976;51.510;7.522;2023-09-07T05:31:10;15.80;99.90
58638;DHT22;54976;51.510;7.522;2023-09-07T05:34:10;15.80;99.90
58638;DHT22;54976;51.510;7.522;2023-09-07T05:37:11;15.80;99.90
58638;DHT22;54976;51.510;7.522;2023-09-07T05:40:11;15.80;99.90
58638;DHT22;54976;51.510;7.522;2023-09-07T05:43:12;15.90;99.90
58638;DHT22;54976;51.510;7.522;2023-09-07T05:46:12;15.90;99.90
58638;DHT22;54976;51.510;7.522;2023-09-07T05:49:13;15.90;99.90
58638;DHT22;54976;51.510;7.522;2023-09-07T05:52:13;15.90;99.90
58638;DHT22;54976;51.510;7.522;2023-09-07T05:55:14;16.00;99.90
58638;DHT22;54976;51.510;7.522;2023-09-07T05:58:14;16.00;99.90
58638;DHT22;54976;51.510;7.522;2023-09-07T06:01:15;16.00;99.90
58638;DHT22;54976;51.510;7.522;2023-09-07T06:04:16;16.10;99.90
58638;DHT22;54976;51.510;7.522;2023-09-07T06:07:16;16.10;99.90
58638;DHT22;54976;51.510;7.522;2023-09-07T06:10:17;16.20;99.90
58638;DHT22;54976;51.510;7.522;2023-09-07T06:13:19;16.20;99.90
58638;DHT22;54976;51.510;7.522;2023-09-07T06:16:20;16.20;99.90
58638;DHT22;54976;51.510;7.522;2023-09-07T06:19:20;16.30;99.90
58638;DHT22;54976;51.510;7.522;2023-09-07T06:22:21;16.40;99.90
58638;DHT22;54976;51.510;7.522;2023-09-07T06:25:21;16.40;99.90
58638;DHT22;54976;51.510;7.522;2023-09-07T06:28:22;16.50;99.90
58638;DHT22;54976;51.510;7.522;2023-09-07T06:31:23;16.60;99.90
58638;DHT22;54976;51.510;7.522;2023-09-07T06:34:23;16.70;99.90
58638;DHT22;54976;51.510;7.522;2023-09-07T06:37:24;16.70;99.90
58638;DHT22;54976;51.510;7.522;2023-09-07T06:40:25;16.80;99.90
58638;DHT22;54976;51.510;7.522;2023-09-07T06:43:26;17.10;99.90
58638;DHT22;54976;51.510;7.522;2023-09-07T06:46:26;17.40;99.90
58638;DHT22;54976;51.510;7.522;2023-09-07T06:49:27;17.70;99.90
58638;DHT22;54976;51.510;7.522;2023-09-07T06:52:29;17.80;99.90
58638;DHT22;54976;51.510;7.522;2023-09-07T06:55:30;17.90;99.90
58638;DHT22;54976;51.510;7.522;2023-09-07T06:58:30;18.00;99.90
58638;DHT22;54976;51.510;7.522;2023-09-07T07:01:33;18.10;99.90
58638;DHT22;54976;51.510;7.522;2023-09-07T07:04:33;18.20;99.90
58638;DHT22;54976;51.510;7.522;2023-09-07T07:07:35;18.30;99.90
58638;DHT22;54976;51.510;7.522;2023-09-07T07:10:36;18.40;99.90
58638;DHT22;54976;51.510;7.522;2023-09-07T07:13:36;18.60;99.90
58638;DHT22;54976;51.510;7.522;2023-09-07T07:16:37;18.70;99.50
58638;DHT22;54976;51.510;7.522;2023-09-07T07:19:37;18.90;99.50
58638;DHT22;54976;51.510;7.522;2023-09-07T07:22:38;19.10;99.10
58638;DHT22;54976;51.510;7.522;2023-09-07T07:25:40;19.20;99.40
58638;DHT22;54976;51.510;7.522;2023-09-07T07:28:41;19.30;99.10
58638;DHT22;54976;51.510;7.522;2023-09-07T07:31:41;19.40;98.70
58638;DHT22;54976;51.510;7.522;2023-09-07T07:34:42;19.50;98.80
58638;DHT22;54976;51.510;7.522;2023-09-07T07:37:43;19.60;98.80
58638;DHT22;54976;51.510;7.522;2023-09-07T07:40:43;19.60;98.00
58638;DHT22;54976;51.510;7.522;2023-09-07T07:43:46;19.70;98.10
58638;DHT22;54976;51.510;7.522;2023-09-07T07:46:47;19.80;97.80
58638;DHT22;54976;51.510;7.522;2023-09-07T07:49:47;19.90;97.90
58638;DHT22;54976;51.510;7.522;2023-09-07T07:52:48;20.00;97.60
58638;DHT22;54976;51.510;7.522;2023-09-07T07:55:48;20.10;97.60
58638;DHT22;54976;51.510;7.522;2023-09-07T07:58:49;20.20;98.10
58638;DHT22;54976;51.510;7.522;2023-09-07T08:01:50;20.30;98.10
58638;DHT22;54976;51.510;7.522;2023-09-07T08:04:50;20.50;97.80
58638;DHT22;54976;51.510;7.522;2023-09-07T08:07:51;20.60;98.00
58638;DHT22;54976;51.510;7.522;2023-09-07T08:10:53;20.70;98.20
58638;DHT22;54976;51.510;7.522;2023-09-07T08:13:54;21.00;98.40
58638;DHT22;54976;51.510;7.522;2023-09-07T08:16:54;21.20;97.80
58638;DHT22;54976;51.510;7.522;2023-09-07T08:19:55;21.40;98.10
58638;DHT22;54976;51.510;7.522;2023-09-07T08:22:56;21.80;97.10
58638;DHT22;54976;51.510;7.522;2023-09-07T08:25:58;22.20;95.30
58638;DHT22;54976;51.510;7.522;2023-09-07T08:29:00;22.40;94.90
58638;DHT22;54976;51.510;7.522;2023-09-07T08:32:05;22.60;94.50
58638;DHT22;54976;51.510;7.522;2023-09-07T08:35:06;22.80;94.70
58638;DHT22;54976;51.510;7.522;2023-09-07T08:38:08;22.90;94.50
58638;DHT22;54976;51.510;7.522;2023-09-07T08:41:08;23.00;94.30
58638;DHT22;54976;51.510;7.522;2023-09-07T08:44:16;23.10;93.20
58638;DHT22;54976;51.510;7.522;2023-09-07T08:47:17;23.20;92.40
58638;DHT22;54976;51.510;7.522;2023-09-07T08:50:18;23.30;87.10
58638;DHT22;54976;51.510;7.522;2023-09-07T08:53:19;23.40;91.20
58638;DHT22;54976;51.510;7.522;2023-09-07T08:56:22;23.60;87.60
58638;DHT22;54976;51.510;7.522;2023-09-07T08:59:22;23.60;85.50
58638;DHT22;54976;51.510;7.522;2023-09-07T09:02:23;23.70;83.50
58638;DHT22;54976;51.510;7.522;2023-09-07T09:05:23;23.80;82.30
58638;DHT22;54976;51.510;7.522;2023-09-07T09:08:25;23.80;85.20
58638;DHT22;54976;51.510;7.522;2023-09-07T09:11:26;23.80;86.90
58638;DHT22;54976;51.510;7.522;2023-09-07T09:14:30;23.80;87.50
58638;DHT22;54976;51.510;7.522;2023-09-07T09:17:30;23.90;82.50
58638;DHT22;54976;51.510;7.522;2023-09-07T09:20:31;24.00;84.30
58638;DHT22;54976;51.510;7.522;2023-09-07T09:23:32;24.00;83.60
58638;DHT22;54976;51.510;7.522;2023-09-07T09:26:33;24.00;86.30
58638;DHT22;54976;51.510;7.522;2023-09-07T09:29:36;24.10;84.30
58638;DHT22;54976;51.510;7.522;2023-09-07T09:32:38;24.10;80.90
58638;DHT22;54976;51.510;7.522;2023-09-07T09:35:38;24.20;78.70
58638;DHT22;54976;51.510;7.522;2023-09-07T09:38:39;24.30;82.90
58638;DHT22;54976;51.510;7.522;2023-09-07T09:41:39;24.30;81.30
58638;DHT22;54976;51.510;7.522;2023-09-07T09:44:40;24.50;79.70
58638;DHT22;54976;51.510;7.522;2023-09-07T09:47:41;24.60;80.10
58638;DHT22;54976;51.510;7.522;2023-09-07T09:50:42;24.80;80.00
58638;DHT22;54976;51.510;7.522;2023-09-07T09:53:44;24.80;81.60
58638;DHT22;54976;51.510;7.522;2023-09-07T09:56:44;24.90;75.00
58638;DHT22;54976;51.510;7.522;2023-09-07T09:59:45;25.10;76.80
58638;DHT22;54976;51.510;7.522;2023-09-07T10:02:48;25.20;77.80
58638;DHT22;54976;51.510;7.522;2023-09-07T10:05:50;25.30;75.80
58638;DHT22;54976;51.510;7.522;2023-09-07T10:08:55;25.40;74.60
58638;DHT22;54976;51.510;7.522;2023-09-07T10:11:57;25.50;73.70
58638;DHT22;54976;51.510;7.522;2023-09-07T10:14:57;25.50;76.20
58638;DHT22;54976;51.510;7.522;2023-09-07T10:18:13;25.50;78.70
58638;DHT22;54976;51.510;7.522;2023-09-07T10:21:15;25.50;74.30
58638;DHT22;54976;51.510;7.522;2023-09-07T10:27:26;25.70;75.60
58638;DHT22;54976;51.510;7.522;2023-09-07T10:30:36;25.80;74.80
58638;DHT22;54976;51.510;7.522;2023-09-07T10:33:36;25.80;75.40
58638;DHT22;54976;51.510;7.522;2023-09-07T10:36:37;25.80;73.00
58638;DHT22;54976;51.510;7.522;2023-09-07T10:39:37;25.80;68.30
58638;DHT22;54976;51.510;7.522;2023-09-07T10:42:39;25.90;70.10
58638;DHT22;54976;51.510;7.522;2023-09-07T10:45:39;26.00;74.70
58638;DHT22;54976;51.510;7.522;2023-09-07T10:48:44;26.00;73.80
58638;DHT22;54976;51.510;7.522;2023-09-07T10:51:45;26.00;75.80
58638;DHT22;54976;51.510;7.522;2023-09-07T10:54:55;26.00;72.70
58638;DHT22;54976;51.510;7.522;2023-09-07T10:57:55;26.10;73.60
58638;DHT22;54976;51.510;7.522;2023-09-07T11:00:56;26.10;70.40
58638;DHT22;54976;51.510;7.522;2023-09-07T11:03:56;26.20;73.20
58638;DHT22;54976;51.510;7.522;2023-09-07T11:06:57;26.20;76.70
58638;DHT22;54976;51.510;7.522;2023-09-07T11:09:57;26.20;73.90
58638;DHT22;54976;51.510;7.522;2023-09-07T11:13:01;26.20;74.70
58638;DHT22;54976;51.510;7.522;2023-09-07T11:16:01;26.20;69.90
58638;DHT22;54976;51.510;7.522;2023-09-07T11:19:03;26.30;73.60
58638;DHT22;54976;51.510;7.522;2023-09-07T11:22:04;26.40;72.50
58638;DHT22;54976;51.510;7.522;2023-09-07T11:25:05;26.50;70.00
58638;DHT22;54976;51.510;7.522;2023-09-07T11:28:06;26.50;70.40
58638;DHT22;54976;51.510;7.522;2023-09-07T11:31:06;26.60;67.30
58638;DHT22;54976;51.510;7.522;2023-09-07T11:34:09;26.80;67.70
58638;DHT22;54976;51.510;7.522;2023-09-07T11:37:10;26.90;66.30
58638;DHT22;54976;51.510;7.522;2023-09-07T11:40:11;27.10;65.70
58638;DHT22;54976;51.510;7.522;2023-09-07T11:43:12;27.10;68.30
58638;DHT22;54976;51.510;7.522;2023-09-07T11:46:13;27.20;68.60
58638;DHT22;54976;51.510;7.522;2023-09-07T11:49:13;27.20;63.20
58638;DHT22;54976;51.510;7.522;2023-09-07T11:52:15;27.20;64.60
58638;DHT22;54976;51.510;7.522;2023-09-07T11:55:15;27.30;69.00
58638;DHT22;54976;51.510;7.522;2023-09-07T11:58:16;27.30;68.20
58638;DHT22;54976;51.510;7.522;2023-09-07T12:01:16;27.40;68.40
58638;DHT22;54976;51.510;7.522;2023-09-07T12:04:17;27.60;68.90
58638;DHT22;54976;51.510;7.522;2023-09-07T12:07:17;27.60;67.90
58638;DHT22;54976;51.510;7.522;2023-09-07T12:10:18;27.60;67.90
58638;DHT22;54976;51.510;7.522;2023-09-07T12:13:18;27.70;66.90
58638;DHT22;54976;51.510;7.522;2023-09-07T12:16:19;27.80;67.10
58638;DHT22;54976;51.510;7.522;2023-09-07T12:19:19;27.90;67.10
58638;DHT22;54976;51.510;7.522;2023-09-07T12:22:20;27.90;67.00
58638;DHT22;54976;51.510;7.522;2023-09-07T12:25:20;27.80;64.10
58638;DHT22;54976;51.510;7.522;2023-09-07T12:28:21;27.80;65.60
58638;DHT22;54976;51.510;7.522;2023-09-07T12:31:21;27.90;66.00
58638;DHT22;54976;51.510;7.522;2023-09-07T12:34:22;27.90;64.90
58638;DHT22;54976;51.510;7.522;2023-09-07T12:37:22;28.00;64.30
58638;DHT22;54976;51.510;7.522;2023-09-07T12:40:23;28.20;64.70
58638;DHT22;54976;51.510;7.522;2023-09-07T12:43:24;28.20;64.80
58638;DHT22;54976;51.510;7.522;2023-09-07T12:46:25;28.30;62.90
58638;DHT22;54976;51.510;7.522;2023-09-07T12:49:25;28.70;60.50
58638;DHT22;54976;51.510;7.522;2023-09-07T12:52:26;29.10;60.20
58638;DHT22;54976;51.510;7.522;2023-09-07T12:55:26;29.40;58.60
58638;DHT22;54976;51.510;7.522;2023-09-07T12:58:28;29.70;57.60
58638;DHT22;54976;51.510;7.522;2023-09-07T13:01:28;29.90;57.40
58638;DHT22;54976;51.510;7.522;2023-09-07T13:04:30;30.10;57.90
58638;DHT22;54976;51.510;7.522;2023-09-07T13:07:30;30.00;56.90
58638;DHT22;54976;51.510;7.522;2023-09-07T13:10:32;29.80;56.70
58638;DHT22;54976;51.510;7.522;2023-09-07T13:13:33;29.90;57.00
58638;DHT22;54976;51.510;7.522;2023-09-07T13:16:33;30.00;56.20
58638;DHT22;54976;51.510;7.522;2023-09-07T13:19:34;30.10;57.50
58638;DHT22;54976;51.510;7.522;2023-09-07T13:22:35;30.10;57.90
58638;DHT22;54976;51.510;7.522;2023-09-07T13:25:35;30.00;57.50
58638;DHT22;54976;51.510;7.522;2023-09-07T13:28:35;30.10;56.30
58638;DHT22;54976;51.510;7.522;2023-09-07T13:31:36;30.10;55.30
58638;DHT22;54976;51.510;7.522;2023-09-07T13:34:37;30.00;54.60
58638;DHT22;54976;51.510;7.522;2023-09-07T13:37:37;30.00;56.00
58638;DHT22;54976;51.510;7.522;2023-09-07T13:40:38;30.00;55.10
58638;DHT22;54976;51.510;7.522;2023-09-07T13:43:38;30.10;55.80
58638;DHT22;54976;51.510;7.522;2023-09-07T13:46:39;30.10;54.40
58638;DHT22;54976;51.510;7.522;2023-09-07T13:49:39;30.20;55.80
58638;DHT22;54976;51.510;7.522;2023-09-07T13:52:40;30.30;53.80
58638;DHT22;54976;51.510;7.522;2023-09-07T13:55:40;30.40;54.40
58638;DHT22;54976;51.510;7.522;2023-09-07T13:58:42;30.60;54.00
58638;DHT22;54976;51.510;7.522;2023-09-07T14:01:42;30.60;51.90
58638;DHT22;54976;51.510;7.522;2023-09-07T14:04:43;30.70;54.90
58638;DHT22;54976;51.510;7.522;2023-09-07T14:07:43;30.80;50.50
58638;DHT22;54976;51.510;7.522;2023-09-07T14:10:44;30.70;50.10
58638;DHT22;54976;51.510;7.522;2023-09-07T14:13:47;30.70;49.20
58638;DHT22;54976;51.510;7.522;2023-09-07T14:16:47;30.70;49.80
58638;DHT22;54976;51.510;7.522;2023-09-07T14:19:49;30.90;48.50
58638;DHT22;54976;51.510;7.522;2023-09-07T14:22:50;30.90;52.20
58638;DHT22;54976;51.510;7.522;2023-09-07T14:25:51;31.00;48.40
58638;DHT22;54976;51.510;7.522;2023-09-07T14:28:51;30.70;48.30
58638;DHT22;54976;51.510;7.522;2023-09-07T14:31:52;30.70;49.80
58638;DHT22;54976;51.510;7.522;2023-09-07T14:34:52;30.80;49.10
58638;DHT22;54976;51.510;7.522;2023-09-07T14:37:53;30.80;47.60
58638;DHT22;54976;51.510;7.522;2023-09-07T14:40:54;30.70;50.10
58638;DHT22;54976;51.510;7.522;2023-09-07T14:43:55;31.10;50.60
58638;DHT22;54976;51.510;7.522;2023-09-07T14:46:56;31.30;48.10
58638;DHT22;54976;51.510;7.522;2023-09-07T14:49:57;31.20;47.50
58638;DHT22;54976;51.510;7.522;2023-09-07T14:52:58;31.00;48.00
58638;DHT22;54976;51.510;7.522;2023-09-07T14:55:58;30.90;47.90
58638;DHT22;54976;51.510;7.522;2023-09-07T14:58:59;31.10;47.50
58638;DHT22;54976;51.510;7.522;2023-09-07T15:01:59;31.20;46.90
58638;DHT22;54976;51.510;7.522;2023-09-07T15:05:00;31.30;47.80
58638;DHT22;54976;51.510;7.522;2023-09-07T15:08:00;31.80;48.40
58638;DHT22;54976;51.510;7.522;2023-09-07T15:11:03;32.00;45.90
58638;DHT22;54976;51.510;7.522;2023-09-07T15:14:03;32.20;45.70
58638;DHT22;54976;51.510;7.522;2023-09-07T15:17:05;32.30;45.70
58638;DHT22;54976;51.510;7.522;2023-09-07T15:20:07;32.30;43.70
58638;DHT22;54976;51.510;7.522;2023-09-07T15:23:08;32.50;45.20
58638;DHT22;54976;51.510;7.522;2023-09-07T15:26:08;32.30;44.30
58638;DHT22;54976;51.510;7.522;2023-09-07T15:29:10;32.20;43.80
58638;DHT22;54976;51.510;7.522;2023-09-07T15:32:10;32.20;45.40
58638;DHT22;54976;51.510;7.522;2023-09-07T15:35:11;32.20;43.80
58638;DHT22;54976;51.510;7.522;2023-09-07T15:38:11;32.30;44.40
58638;DHT22;54976;51.510;7.522;2023-09-07T15:41:12;32.20;44.00
58638;DHT22;54976;51.510;7.522;2023-09-07T15:44:12;32.30;45.70
58638;DHT22;54976;51.510;7.522;2023-09-07T15:47:13;32.20;45.00
58638;DHT22;54976;51.510;7.522;2023-09-07T15:50:14;32.30;44.60
58638;DHT22;54976;51.510;7.522;2023-09-07T15:53:15;32.30;45.00
58638;DHT22;54976;51.510;7.522;2023-09-07T15:56:15;32.10;42.70
58638;DHT22;54976;51.510;7.522;2023-09-07T15:59:17;32.00;44.00
58638;DHT22;54976;51.510;7.522;2023-09-07T16:02:17;31.80;44.60
58638;DHT22;54976;51.510;7.522;2023-09-07T16:05:18;31.70;45.30
58638;DHT22;54976;51.510;7.522;2023-09-07T16:08:19;31.60;46.80
58638;DHT22;54976;51.510;7.522;2023-09-07T16:11:21;31.50;45.80
58638;DHT22;54976;51.510;7.522;2023-09-07T16:14:22;31.40;46.00
58638;DHT22;54976;51.510;7.522;2023-09-07T16:17:22;31.30;45.80
58638;DHT22;54976;51.510;7.522;2023-09-07T16:20:23;31.20;44.60
58638;DHT22;54976;51.510;7.522;2023-09-07T16:23:23;31.10;47.20
58638;DHT22;54976;51.510;7.522;2023-09-07T16:26:24;30.90;45.60
58638;DHT22;54976;51.510;7.522;2023-09-07T16:29:24;30.60;45.00
58638;DHT22;54976;51.510;7.522;2023-09-07T16:32:25;30.60;46.70
58638;DHT22;54976;51.510;7.522;2023-09-07T16:35:25;30.50;48.00
58638;DHT22;54976;51.510;7.522;2023-09-07T16:38:26;30.40;48.00
58638;DHT22;54976;51.510;7.522;2023-09-07T16:41:27;30.10;49.00
58638;DHT22;54976;51.510;7.522;2023-09-07T16:44:27;30.00;47.90
58638;DHT22;54976;51.510;7.522;2023-09-07T16:47:27;29.80;48.70
58638;DHT22;54976;51.510;7.522;2023-09-07T16:50:28;29.50;49.70
58638;DHT22;54976;51.510;7.522;2023-09-07T16:53:29;29.30;50.80
58638;DHT22;54976;51.510;7.522;2023-09-07T16:56:30;29.00;50.50
58638;DHT22;54976;51.510;7.522;2023-09-07T16:59:31;28.80;51.50
58638;DHT22;54976;51.510;7.522;2023-09-07T17:02:32;28.60;52.60
58638;DHT22;54976;51.510;7.522;2023-09-07T17:05:33;28.30;53.00
58638;DHT22;54976;51.510;7.522;2023-09-07T17:08:37;28.10;53.70
58638;DHT22;54976;51.510;7.522;2023-09-07T17:11:37;27.90;53.50
58638;DHT22;54976;51.510;7.522;2023-09-07T17:14:38;27.70;54.20
58638;DHT22;54976;51.510;7.522;2023-09-07T17:17:38;27.50;53.70
58638;DHT22;54976;51.510;7.522;2023-09-07T17:20:39;27.30;53.80
58638;DHT22;54976;51.510;7.522;2023-09-07T17:23:39;27.10;54.00
58638;DHT22;54976;51.510;7.522;2023-09-07T17:26:40;27.00;55.70
58638;DHT22;54976;51.510;7.522;2023-09-07T17:29:40;26.80;55.90
58638;DHT22;54976;51.510;7.522;2023-09-07T17:32:40;26.60;56.60
58638;DHT22;54976;51.510;7.522;2023-09-07T17:35:41;26.40;57.30
58638;DHT22;54976;51.510;7.522;2023-09-07T17:38:42;26.20;57.70
58638;DHT22;54976;51.510;7.522;2023-09-07T17:41:42;26.00;58.90
58638;DHT22;54976;51.510;7.522;2023-09-07T17:44:43;25.80;59.70
58638;DHT22;54976;51.510;7.522;2023-09-07T17:47:43;25.60;59.10
58638;DHT22;54976;51.510;7.522;2023-09-07T17:50:45;25.40;60.00
58638;DHT22;54976;51.510;7.522;2023-09-07T17:53:48;25.30;59.90
58638;DHT22;54976;51.510;7.522;2023-09-07T17:56:49;25.10;59.70
58638;DHT22;54976;51.510;7.522;2023-09-07T17:59:50;24.80;61.10
58638;DHT22;54976;51.510;7.522;2023-09-07T18:02:57;24.70;61.00
58638;DHT22;54976;51.510;7.522;2023-09-07T18:05:58;24.50;62.10
58638;DHT22;54976;51.510;7.522;2023-09-07T18:08:58;24.40;62.20
58638;DHT22;54976;51.510;7.522;2023-09-07T18:11:59;24.20;63.10
58638;DHT22;54976;51.510;7.522;2023-09-07T18:14:59;24.00;64.40
58638;DHT22;54976;51.510;7.522;2023-09-07T18:18:00;23.80;65.00
58638;DHT22;54976;51.510;7.522;2023-09-07T18:21:04;23.70;66.70
58638;DHT22;54976;51.510;7.522;2023-09-07T18:24:05;23.50;67.30
58638;DHT22;54976;51.510;7.522;2023-09-07T18:27:05;23.40;66.60
58638;DHT22;54976;51.510;7.522;2023-09-07T18:30:06;23.20;67.10
58638;DHT22;54976;51.510;7.522;2023-09-07T18:33:07;23.10;68.90
58638;DHT22;54976;51.510;7.522;2023-09-07T18:36:07;23.00;70.80
58638;DHT22;54976;51.510;7.522;2023-09-07T18:39:09;22.80;72.70
58638;DHT22;54976;51.510;7.522;2023-09-07T18:42:10;22.70;72.40
58638;DHT22;54976;51.510;7.522;2023-09-07T18:45:10;22.60;73.10
58638;DHT22;54976;51.510;7.522;2023-09-07T18:48:11;22.50;73.50
58638;DHT22;54976;51.510;7.522;2023-09-07T18:51:12;22.40;74.30
58638;DHT22;54976;51.510;7.522;2023-09-07T18:54:12;22.30;75.40
58638;DHT22;54976;51.510;7.522;2023-09-07T18:57:13;22.20;75.40
58638;DHT22;54976;51.510;7.522;2023-09-07T19:00:13;22.10;76.00
58638;DHT22;54976;51.510;7.522;2023-09-07T19:03:15;22.00;76.00
58638;DHT22;54976;51.510;7.522;2023-09-07T19:06:15;22.00;76.30